AKDT,Max TemperatureF,Mean TemperatureF,Min TemperatureF,Max Dew PointF,MeanDew PointF,Min DewpointF,Max Humidity, Mean Humidity, Min Humidity, Max Sea Level PressureIn, Mean Sea Level PressureIn, Min Sea Level PressureIn, Max VisibilityMiles, Mean VisibilityMiles, Min VisibilityMiles, Max Wind SpeedMPH, Mean Wind SpeedMPH, Max Gust SpeedMPH,PrecipitationIn, CloudCover, Events, WindDirDegrees
2013-9-1,64,58,51,57,54,51,100,95,73,29.94,29.90,29.86,10,3,0,7,1,,0.00,6,Fog,203
2013-9-2,69,61,53,59,55,52,100,92,70,29.99,29.93,29.89,10,8,1,6,1,,0.01,6,,251
2013-9-3,68,58,51,59,54,50,100,92,68,29.99,29.98,29.95,10,6,0,9,1,,0.01,4,Fog,214
2013-9-4,61,59,57,56,54,52,90,82,72,30.07,30.03,29.98,10,10,10,7,3,,0.05,8,,172
2013-9-5,69,60,53,57,55,51,100,84,59,30.22,30.16,30.07,10,9,2,8,4,,0.05,3,Rain,215
2013-9-6,73,62,50,56,52,49,97,76,51,30.22,30.16,30.13,10,10,9,7,1,,0.01,1,,227
2013-9-7,70,59,50,59,55,48,100,86,70,30.13,30.02,29.87,10,10,4,9,2,,0.09,3,Rain,215
2013-9-8,66,57,50,61,54,48,100,88,63,30.17,30.06,29.87,10,9,4,12,5,23,0.45,5,Rain,206
2013-9-9,63,54,46,53,48,45,100,88,62,30.16,30.14,30.09,10,7,1,5,1,,0.01,4,,228
2013-9-10,64,56,48,57,54,46,100,88,67,30.09,30.07,30.05,10,8,2,8,2,,0.07,7,Rain,29
2013-9-11,70,61,53,61,56,52,100,91,75,30.06,30.03,29.99,10,8,1,8,1,,0.00,5,,225
2013-9-12,64,58,53,57,55,52,100,89,77,30.07,30.04,30.00,10,10,8,7,2,,0.00,7,,219
2013-9-13,64,58,51,56,53,49,100,91,75,30.08,30.04,29.93,10,8,1,7,1,,0.01,5,,230
2013-9-14,66,56,46,55,50,45,100,88,59,29.93,29.86,29.78,10,6,0,6,1,,0.01,2,Fog,209
2013-9-15,66,56,46,54,48,45,100,90,54,29.77,29.71,29.62,10,5,0,8,1,,0.06,5,Fog-Rain,214
2013-9-16,59,54,52,54,51,49,100,87,72,29.73,29.67,29.64,10,10,4,8,3,,0.24,7,Rain,170
2013-9-17,57,54,50,53,50,48,100,91,77,29.80,29.75,29.70,10,9,2,6,2,,0.63,8,Rain,166
2013-9-18,63,54,46,53,48,45,100,88,56,29.84,29.79,29.61,10,8,1,8,1,,0.08,5,Rain,44
2013-9-19,60,56,52,56,53,49,94,87,72,29.55,29.25,29.05,10,7,3,13,7,23,2.38,8,Rain,75
2013-9-20,60,56,51,55,52,48,100,88,77,29.48,29.26,29.05,10,8,2,14,6,26,0.76,8,Rain,188
2013-9-21,53,50,48,50,47,44,96,85,74,29.48,29.31,29.00,10,9,4,9,4,21,0.64,8,Rain,178
2013-9-22,54,51,48,52,49,45,96,90,83,29.22,29.04,28.94,10,9,3,7,3,,0.49,7,Rain,188
2013-9-23,53,49,46,48,45,43,94,87,80,29.68,29.46,29.22,10,10,7,6,3,,0.23,6,Rain,172
2013-9-24,60,48,39,46,43,39,100,84,58,30.11,29.93,29.69,10,9,0,6,1,,0.01,4,Fog,266
2013-9-25,60,48,36,48,43,35,100,90,58,30.18,30.15,30.08,10,6,0,6,1,,0.01,5,Fog,233
2013-9-26,53,50,48,52,48,46,100,92,77,30.07,29.90,29.78,10,9,4,6,3,,0.53,8,Rain,147
2013-9-27,52,49,46,48,46,43,100,90,77,29.76,29.52,29.04,10,8,4,9,5,20,0.93,8,Rain,172
2013-9-28,57,52,46,47,44,42,97,82,62,29.00,28.90,28.86,10,10,4,13,3,17,0.75,7,Rain,34
2013-9-29,55,50,44,46,44,42,97,88,71,29.11,28.94,28.84,10,10,4,13,8,,0.26,7,Rain,33
2013-9-30,57,46,37,48,42,36,100,91,67,29.53,29.28,29.11,10,7,1,6,1,,0.25,4,Rain,211